Latest Weather Observations for Mount Gambier

IDS60801

Issued at 9:02 am CST Saturday 23 May 2015 (issued every 30 minutes, with the page automatically refreshed every 10 minutes)

About weather observations | Map of weather stations | Latest weather observations for SA | Other Formats
Station Details ID: 026021 Name: MOUNT GAMBIER AERO Lat: -37.75 Lon: 140.77 Height: 63.0 m
Data from the previous 72 hours. | See also: Recent months at Mount Gambier
Date/Time
CST
Temp
°C
App
Temp
°C
Dew
Point
Rel
Hum
%
Delta-T
°C
Wind Press
QNH
hPa
Press
MSL
hPa
Rain
since 9 am
mm
Dir
 
Spd
km/h
Gust
km/h
Spd
kts
Gust
kts
23/09:00am 9.8 8.5 6.1 78 1.7 ENE 2 7 1 4 1033.7 1033.8 0.0
23/08:30am 9.0 7.9 5.2 77 1.7 CALM 0 0 0 0 1033.5 1033.6 0.0
23/08:00am 7.8 6.4 5.6 86 1.0 E 2 6 1 3 1033.3 1033.4 0.0
23/07:30am 6.7 4.3 5.1 89 0.7 E 7 9 4 5 1033.1 1033.2 0.0
23/07:00am 6.9 5.8 5.3 89 0.7 CALM 0 0 0 0 1033.0 1033.1 0.0
23/06:30am 6.6 5.5 5.2 91 0.6 CALM 0 0 0 0 1032.8 1032.9 0.0
23/06:00am 7.1 6.0 5.0 86 0.9 CALM 0 0 0 0 1032.5 1032.6 0.0
23/05:30am 6.4 3.9 4.5 88 0.8 SE 7 7 4 4 1032.5 1032.6 0.0
23/05:00am 7.5 5.0 5.0 84 1.1 ESE 7 9 4 5 1032.2 1032.3 0.0
23/04:30am 7.8 5.1 5.6 86 1.0 SE 9 11 5 6 1032.3 1032.4 0.0
23/04:00am 8.3 5.6 5.4 82 1.3 SE 9 11 5 6 1032.2 1032.3 0.0
23/03:30am 8.3 5.9 5.4 82 1.3 SE 7 9 4 5 1032.2 1032.3 0.0
23/03:00am 8.6 5.9 5.5 81 1.4 ESE 9 13 5 7 1032.1 1032.2 0.0
23/02:30am 8.8 5.8 5.9 82 1.3 SE 11 17 6 9 1032.1 1032.2 0.0
23/02:00am 9.4 5.6 5.6 77 1.7 SE 15 19 8 10 1032.4 1032.5 0.0
23/01:30am 9.4 6.7 5.6 77 1.7 ESE 9 11 5 6 1032.5 1032.6 0.0
23/01:00am 9.4 6.7 5.4 76 1.8 ESE 9 13 5 7 1032.5 1032.6 0.0
23/12:30am 9.1 6.4 5.5 78 1.6 E 9 13 5 7 1032.5 1032.6 0.0
23/12:00am 9.3 5.7 4.8 73 2.0 E 13 17 7 9 1032.7 1032.8 0.0
 
Date/Time
CST
Temp
°C
App
Temp
°C
Dew
Point
Rel
Hum
%
Delta-T
°C
Wind Press
QNH
hPa
Press
MSL
hPa
Rain
since 9 am
mm
Dir
 
Spd
km/h
Gust
km/h
Spd
kts
Gust
kts
22/11:30pm 8.9 5.7 5.1 77 1.7 E 11 15 6 8 1032.8 1032.9 0.0
22/11:00pm 9.2 6.0 5.2 76 1.8 E 11 15 6 8 1032.9 1033.0 0.0
22/10:30pm 9.6 6.0 5.1 73 2.0 ESE 13 22 7 12 1033.0 1033.1 0.0
22/10:00pm 9.6 6.5 5.6 76 1.8 ESE 11 13 6 7 1032.8 1032.9 0.0
22/09:30pm 9.6 6.6 5.9 78 1.7 SE 11 15 6 8 1032.9 1033.0 0.0
22/09:00pm 9.6 6.2 6.1 79 1.6 SE 13 15 7 8 1033.1 1033.2 0.0
22/08:30pm 9.8 6.8 6.1 78 1.7 SE 11 17 6 9 1033.0 1033.1 0.0
22/08:00pm 9.9 7.4 6.4 79 1.6 ESE 9 13 5 7 1032.8 1032.9 0.0
22/07:30pm 9.9 7.4 6.7 80 1.5 SE 9 13 5 7 1032.9 1033.0 0.0
22/07:00pm 10.0 7.2 6.8 80 1.5 SE 11 17 6 9 1032.7 1032.8 0.0
22/06:30pm 10.0 7.2 6.8 80 1.5 SSE 11 17 6 9 1032.8 1032.9 0.0
22/06:00pm 10.2 6.9 6.3 77 1.8 SSE 13 17 7 9 1032.6 1032.7 0.0
22/05:30pm 10.3 7.1 6.7 78 1.7 SSE 13 17 7 9 1032.4 1032.5 0.0
22/05:00pm 10.5 7.4 7.1 79 1.6 SSE 13 17 7 9 1032.3 1032.4 0.0
22/04:30pm 10.8 8.0 7.0 77 1.8 SSE 11 15 6 8 1032.3 1032.4 0.0
22/04:00pm 11.0 7.7 6.5 74 2.1 SSE 13 17 7 9 1032.1 1032.2 0.0
22/03:30pm 11.2 7.0 5.8 69 2.5 SE 17 20 9 11 1032.1 1032.2 0.0
22/03:00pm 11.5 7.3 5.6 67 2.7 SSE 17 24 9 13 1032.0 1032.1 0.0
22/02:30pm 11.8 8.3 7.2 73 2.2 SE 15 19 8 10 1031.7 1031.8 0.0
22/02:00pm 11.7 8.4 6.6 71 2.4 SE 13 17 7 9 1031.6 1031.7 0.0
22/01:30pm 11.9 7.8 6.1 67 2.7 SE 17 26 9 14 1031.7 1031.8 0.0
22/01:00pm 11.7 7.0 6.1 68 2.6 SSE 20 28 11 15 1031.8 1031.9 0.0
22/12:30pm 12.0 8.0 6.7 70 2.5 SE 17 20 9 11 1031.9 1032.0 0.0
22/12:00pm 12.0 8.0 6.5 69 2.6 SSE 17 24 9 13 1032.2 1032.3 0.0
22/11:30am 11.8 7.8 6.5 70 2.5 SSE 17 24 9 13 1032.5 1032.6 0.0
22/11:00am 11.7 8.5 6.8 72 2.3 SE 13 17 7 9 1032.7 1032.8 0.0
22/10:30am 11.7 8.1 6.8 72 2.3 SSE 15 19 8 10 1032.6 1032.7 0.0
22/10:00am 11.5 8.5 7.5 76 1.9 SE 13 19 7 10 1032.3 1032.4 0.0
22/09:30am 11.2 8.7 6.7 74 2.1 SE 9 13 5 7 1032.1 1032.2 0.0
22/09:00am 11.1 8.4 7.3 77 1.8 SSE 11 13 6 7 1031.9 1032.0 0.6
22/08:30am 10.9 8.1 7.1 77 1.8 S 11 13 6 7 1031.8 1031.9 0.6
22/08:00am 10.7 7.9 6.9 77 1.8 SSE 11 13 6 7 1031.5 1031.6 0.6
22/07:30am 9.9 7.0 6.7 80 1.5 SSE 11 15 6 8 1031.3 1031.4 0.6
22/07:00am 9.9 7.0 6.7 80 1.5 S 11 15 6 8 1031.0 1031.0 0.6
22/06:30am 9.8 7.2 6.3 79 1.6 S 9 11 5 6 1030.6 1030.6 0.6
22/06:00am 9.8 6.8 6.1 78 1.7 S 11 13 6 7 1030.3 1030.3 0.6
22/05:30am 9.8 7.2 6.3 79 1.6 SSE 9 11 5 6 1030.1 1030.1 0.6
22/05:00am 10.0 6.6 5.8 75 1.9 SSE 13 20 7 11 1029.9 1029.9 0.6
22/04:30am 9.9 6.6 6.2 78 1.7 S 13 19 7 10 1029.8 1029.8 0.6
22/04:00am 10.0 6.4 6.8 80 1.5 S 15 22 8 12 1029.8 1029.8 0.6
22/03:30am 9.7 6.8 6.5 80 1.5 S 11 13 6 7 1029.6 1029.6 0.6
22/03:00am 9.3 6.4 6.7 84 1.2 S 11 13 6 7 1029.6 1029.6 0.6
22/02:30am 9.6 6.3 6.6 81 1.4 SSE 13 15 7 8 1029.5 1029.5 0.6
22/02:00am 9.7 6.6 7.4 85 1.1 S 13 17 7 9 1029.5 1029.5 0.6
22/01:30am 9.5 6.1 7.6 88 0.9 S 15 17 8 9 1029.4 1029.4 0.6
22/01:00am 9.2 6.5 7.5 89 0.8 SSW 11 13 6 7 1029.3 1029.3 0.6
22/12:30am 8.9 6.1 7.0 88 0.9 SSW 11 13 6 7 1029.3 1029.3 0.6
22/12:00am 9.0 6.2 7.1 88 0.9 S 11 15 6 8 1029.3 1029.3 0.6
 
Date/Time
CST
Temp
°C
App
Temp
°C
Dew
Point
Rel
Hum
%
Delta-T
°C
Wind Press
QNH
hPa
Press
MSL
hPa
Rain
since 9 am
mm
Dir
 
Spd
km/h
Gust
km/h
Spd
kts
Gust
kts
21/11:30pm 8.7 5.6 7.2 90 0.7 S 13 15 7 8 1029.3 1029.3 0.6
21/11:00pm 9.1 6.2 8.3 95 0.4 S 13 15 7 8 1029.3 1029.3 0.6
21/10:30pm 9.3 6.9 8.7 96 0.3 S 11 13 6 7 1029.2 1029.2 0.6
21/10:00pm 9.0 5.8 8.6 97 0.2 SSE 15 17 8 9 1029.3 1029.3 0.6
21/09:30pm 10.0 7.5 9.6 97 0.2 S 13 19 7 10 1029.2 1029.2 0.6
21/09:17pm 9.9 7.3 9.5 97 0.2 S 13 17 7 9 1029.2 1029.2 0.6
21/09:03pm 10.1 8.0 9.7 97 0.2 S 11 15 6 8 1029.1 1029.1 0.6
21/09:00pm 10.1 7.6 9.7 97 0.2 S 13 15 7 8 1029.1 1029.1 0.6
21/08:45pm 10.1 7.6 9.7 97 0.2 S 13 17 7 9 1029.1 1029.1 0.6
21/08:30pm 10.1 8.0 9.7 97 0.2 S 11 17 6 9 1029.0 1029.0 0.4
21/08:27pm 10.1 8.0 9.7 97 0.2 S 11 17 6 9 1028.9 1028.9 0.4
21/08:10pm 9.9 7.7 9.5 97 0.2 SSE 11 13 6 7 1028.8 1028.8 0.4
21/08:00pm 10.0 8.2 9.6 97 0.2 S 9 13 5 7 1028.7 1028.7 0.4
21/07:54pm 9.9 8.1 9.5 97 0.2 S 9 11 5 6 1028.6 1028.6 0.4
21/07:49pm 9.7 7.8 9.1 96 0.3 S 9 11 5 6 1028.6 1028.6 0.4
21/07:44pm 9.6 8.1 9.0 96 0.3 S 7 9 4 5 1028.5 1028.5 0.4
21/07:34pm 9.5 7.9 8.9 96 0.3 SSE 7 9 4 5 1028.4 1028.4 0.4
21/07:30pm 9.4 7.8 8.8 96 0.3 SSE 7 9 4 5 1028.4 1028.4 0.2
21/07:15pm 9.5 7.6 8.9 96 0.3 SSE 9 9 5 5 1028.3 1028.3 0.2
21/07:00pm 9.3 7.3 8.7 96 0.3 S 9 11 5 6 1028.2 1028.2 0.2
21/06:30pm 10.1 7.9 9.3 95 0.4 S 11 15 6 8 1028.0 1028.0 0.2
21/06:00pm 9.9 7.6 8.9 93 0.5 S 11 15 6 8 1027.7 1027.7 0.2
21/05:30pm 10.4 7.8 9.4 93 0.5 S 13 19 7 10 1027.2 1027.2 0.2
21/05:00pm 11.0 7.7 9.4 90 0.8 SSE 17 22 9 12 1027.0 1027.0 0.2
21/04:30pm 11.3 8.0 9.7 90 0.8 S 17 22 9 12 1026.7 1026.7 0.0
21/04:00pm 11.4 7.6 9.2 86 1.1 S 19 26 10 14 1026.6 1026.6 0.0
21/03:30pm 11.7 7.8 9.5 86 1.1 S 20 28 11 15 1026.4 1026.4 0.0
21/03:00pm 12.1 8.2 9.3 83 1.4 S 20 28 11 15 1026.2 1026.2 0.0
21/02:30pm 11.9 8.1 9.1 83 1.4 S 19 26 10 14 1025.8 1025.9 0.0
21/02:00pm 12.8 8.6 8.4 74 2.2 SSW 20 32 11 17 1025.6 1025.7 0.0
21/01:30pm 13.6 9.6 8.2 70 2.7 SSW 19 28 10 15 1025.6 1025.7 0.0
21/01:00pm 12.0 8.3 9.4 84 1.3 S 19 24 10 13 1025.8 1025.9 0.0
21/12:30pm 12.3 8.4 9.5 83 1.4 SSW 20 30 11 16 1026.1 1026.1 0.0
21/12:00pm 13.0 8.8 8.4 73 2.3 SSE 20 26 11 14 1026.3 1026.3 0.0
21/11:30am 12.7 10.0 9.1 79 1.8 SSE 13 20 7 11 1026.5 1026.5 0.0
21/11:00am 12.3 8.5 8.9 80 1.7 S 19 30 10 16 1026.8 1026.8 0.0
21/10:30am 12.0 9.5 8.3 78 1.8 S 11 19 6 10 1026.7 1026.7 0.0
21/10:00am 11.1 9.2 8.9 86 1.1 SW 9 11 5 6 1026.7 1026.7 0.0
21/09:30am 10.7 7.5 8.4 86 1.1 SSW 15 20 8 11 1026.6 1026.6 0.0
21/09:00am 9.6 7.5 8.1 90 0.7 WSW 9 11 5 6 1026.4 1026.4 0.8
21/08:30am 8.5 6.3 7.9 96 0.3 W 9 11 5 6 1026.2 1026.2 0.8
21/08:00am 7.5 4.7 6.8 95 0.3 W 11 13 6 7 1025.7 1025.8 0.8
21/07:30am 6.9 3.6 6.2 95 0.3 W 13 17 7 9 1025.5 1025.6 0.8
21/07:00am 6.6 5.7 5.9 95 0.3 CALM 0 0 0 0 1025.1 1025.2 0.8
21/06:50am 6.8 5.9 6.1 95 0.3 CALM 0 0 0 0 1025.0 1025.1 0.8
21/06:30am 7.6 5.5 6.5 93 0.5 WSW 7 7 4 4 1024.7 1024.8 0.8
21/06:00am 8.2 5.9 7.3 94 0.4 SSE 9 13 5 7 1024.6 1024.7 0.8
21/05:45am 8.2 5.1 7.3 94 0.4 SSW 13 19 7 10 1024.6 1024.7 0.8
21/05:30am 8.1 5.3 6.8 91 0.6 SSW 11 13 6 7 1024.7 1024.8 0.8
21/05:16am 8.1 5.5 6.3 88 0.8 SW 9 13 5 7 1024.5 1024.6 0.4
21/05:00am 8.1 5.5 6.1 87 0.9 S 9 11 5 6 1024.1 1024.2 0.4
21/04:30am 8.3 4.9 5.9 85 1.1 SSE 13 15 7 8 1023.9 1024.0 0.4
21/04:00am 8.9 5.0 5.3 78 1.6 S 15 20 8 11 1023.6 1023.7 0.4
21/03:30am 9.0 4.5 5.9 81 1.4 SSW 19 30 10 16 1023.6 1023.7 0.4
21/03:00am 8.7 5.5 4.9 77 1.7 WSW 11 15 6 8 1023.7 1023.8 0.4
21/02:30am 8.0 7.2 6.5 90 0.7 CALM 0 7 0 4 1023.5 1023.6 0.4
21/02:00am 8.3 7.5 6.3 87 0.9 CALM 0 7 0 4 1023.4 1023.5 0.4
21/01:30am 8.4 6.3 5.7 83 1.2 ESE 6 7 3 4 1023.4 1023.5 0.4
21/01:00am 8.3 6.2 5.9 85 1.1 ESE 6 7 3 4 1023.4 1023.5 0.4
21/12:30am 8.1 5.5 6.1 87 0.9 SSW 9 11 5 6 1023.3 1023.4 0.4
21/12:00am 7.9 5.4 6.4 90 0.7 SW 9 13 5 7 1023.4 1023.5 0.4
 
Date/Time
CST
Temp
°C
App
Temp
°C
Dew
Point
Rel
Hum
%
Delta-T
°C
Wind Press
QNH
hPa
Press
MSL
hPa
Rain
since 9 am
mm
Dir
 
Spd
km/h
Gust
km/h
Spd
kts
Gust
kts
20/11:30pm 7.5 4.9 5.9 90 0.7 SW 9 11 5 6 1023.2 1023.3 0.4
20/11:00pm 8.0 4.3 6.5 90 0.7 SW 15 19 8 10 1023.2 1023.3 0.4
20/10:30pm 7.5 4.1 5.9 90 0.7 SSE 13 19 7 10 1023.0 1023.1 0.4
20/10:00pm 7.1 3.2 5.5 89 0.7 SSW 15 19 8 10 1023.0 1023.1 0.4
20/09:30pm 8.0 5.0 6.2 88 0.8 SW 11 13 6 7 1022.9 1023.0 0.4
20/09:00pm 8.2 5.3 6.7 90 0.7 SSW 11 15 6 8 1022.6 1022.7 0.4
20/08:30pm 7.5 4.2 6.4 93 0.5 S 13 17 7 9 1022.3 1022.4 0.4
20/08:00pm 7.2 5.0 6.1 93 0.5 SE 7 7 4 4 1021.9 1022.0 0.4
20/07:30pm 7.6 5.1 6.5 93 0.5 SSE 9 11 5 6 1021.8 1021.9 0.4
20/07:00pm 8.2 4.2 6.5 89 0.8 S 17 22 9 12 1021.7 1021.8 0.4
20/06:30pm 8.5 4.8 6.5 87 0.9 SW 15 20 8 11 1021.3 1021.4 0.4
20/06:00pm 8.7 4.7 6.5 86 1.0 S 17 26 9 14 1020.8 1020.9 0.2
20/05:30pm 8.9 4.5 7.6 91 0.6 S 20 28 11 15 1020.5 1020.6 0.2
20/05:00pm 9.1 4.7 7.2 88 0.9 SSW 20 30 11 16 1019.8 1019.9 0.2
20/04:30pm 9.1 4.4 7.8 92 0.6 SW 22 30 12 16 1019.4 1019.5 0.2
20/04:26pm 9.2 4.2 7.9 92 0.6 SW 24 32 13 17 1019.4 1019.5 0.2
20/04:12pm 9.2 3.4 7.9 92 0.6 SW 28 33 15 18 1019.2 1019.3 0.2
20/04:00pm 9.5 3.7 7.8 89 0.8 SSW 28 33 15 18 1019.0 1019.0 0.2
20/03:30pm 10.6 4.7 7.5 81 1.5 SW 28 37 15 20 1018.5 1018.5 0.2
20/03:00pm 10.8 4.4 6.8 76 1.9 SSW 30 39 16 21 1018.2 1018.2 0.2
20/02:30pm 11.5 5.1 6.9 73 2.2 SSW 30 39 16 21 1017.6 1017.6 0.2
20/02:00pm 11.2 5.1 6.8 74 2.1 SSW 28 35 15 19 1017.3 1017.3 0.2
20/01:30pm 11.3 4.2 8.2 81 1.5 SSW 35 44 19 24 1017.0 1017.0 0.2
20/01:00pm 12.1 5.1 8.5 78 1.8 SSW 35 46 19 25 1016.7 1016.7 0.2
20/12:30pm 11.0 4.6 9.2 89 0.9 SSW 33 43 18 23 1016.7 1016.7 0.2
20/12:00pm 10.6 4.2 9.2 91 0.7 SSW 33 43 18 23 1016.5 1016.5 0.2
20/11:30am 12.0 5.6 8.6 80 1.7 S 32 41 17 22 1016.2 1016.2 0.2
20/11:00am 11.2 4.4 9.4 89 0.9 SSW 35 48 19 26 1016.1 1016.1 0.2
20/10:30am 11.9 5.5 9.5 85 1.2 S 33 44 18 24 1015.6 1015.6 0.2
20/10:00am 11.9 5.3 9.9 87 1.0 S 35 48 19 26 1014.9 1014.9 0.2
20/09:30am 11.5 5.4 10.3 92 0.6 S 33 46 18 25 1014.2 1014.2 0.2
20/09:04am 11.5 5.6 10.3 92 0.6 SSW 32 50 17 27 1013.6 1013.6 0.2

Other Formats:

Comma delimited format used in spreadsheet applications
http://www.bom.gov.au/fwo/IDS60801/IDS60801.94821.axf

JavaScript Object Notation format (JSON) in row-major order
http://www.bom.gov.au/fwo/IDS60801/IDS60801.94821.json